FYWE

Eros Airport

Airport
ICAO code
FYWE
IATA Code
ERS
Summary
ICAO Region
AFI
ICAO Territory
Location

Windhoek, Khomas

Serving
Windhoek
Elevation
5757 ft
Coordinates
22° 36' 44" S , 17° 4' 50" E
KCC
Metar
FYWE 272200Z AUTO 15005KT //// // ////// 10/M04 Q1030

Eros Airport or Windhoek Eros Airport is an airport serving Windhoek, the capital and largest city of the Republic of Namibia.

Climatology

Hot, semi-arid/Steppe climate (Köppen climate classification BSh)

Runways

Designator Length Width Surface Rops
9/27 1005 30 GVL No/No
1/19 2250 30 ASP No/No

Airport map

Aerial View

SKYbrary Partners:

Safety knowledge contributed by: